sensor_id;sensor_type;location;lat;lon;timestamp;P1;durP1;ratioP1;P2;durP2;ratioP2
44696;SDS011;57264;47.480;19.354;2023-05-23T00:01:29;11.50;;;4.13;;
44696;SDS011;57264;47.480;19.354;2023-05-23T00:06:27;7.47;;;4.93;;
44696;SDS011;57264;47.480;19.354;2023-05-23T00:08:52;6.13;;;4.27;;
44696;SDS011;57264;47.480;19.354;2023-05-23T00:11:18;6.10;;;4.20;;
44696;SDS011;57264;47.480;19.354;2023-05-23T00:13:44;9.07;;;4.97;;
44696;SDS011;57264;47.480;19.354;2023-05-23T00:16:09;8.30;;;3.90;;
44696;SDS011;57264;47.480;19.354;2023-05-23T00:18:35;7.83;;;4.70;;
44696;SDS011;57264;47.480;19.354;2023-05-23T00:21:02;6.13;;;4.77;;
44696;SDS011;57264;47.480;19.354;2023-05-23T00:23:27;6.43;;;4.53;;
44696;SDS011;57264;47.480;19.354;2023-05-23T00:25:56;5.70;;;4.07;;
44696;SDS011;57264;47.480;19.354;2023-05-23T00:28:22;6.03;;;4.57;;
44696;SDS011;57264;47.480;19.354;2023-05-23T00:30:48;7.77;;;4.60;;
44696;SDS011;57264;47.480;19.354;2023-05-23T00:33:14;9.43;;;4.40;;
44696;SDS011;57264;47.480;19.354;2023-05-23T00:35:46;5.03;;;4.53;;
44696;SDS011;57264;47.480;19.354;2023-05-23T00:38:12;4.73;;;4.23;;
44696;SDS011;57264;47.480;19.354;2023-05-23T00:40:38;6.40;;;4.80;;
44696;SDS011;57264;47.480;19.354;2023-05-23T00:43:04;6.77;;;4.87;;
44696;SDS011;57264;47.480;19.354;2023-05-23T00:45:30;9.27;;;5.03;;
44696;SDS011;57264;47.480;19.354;2023-05-23T00:47:56;5.33;;;4.83;;
44696;SDS011;57264;47.480;19.354;2023-05-23T00:50:23;6.67;;;5.17;;
44696;SDS011;57264;47.480;19.354;2023-05-23T00:52:49;8.60;;;5.30;;
44696;SDS011;57264;47.480;19.354;2023-05-23T00:55:15;6.97;;;4.80;;
44696;SDS011;57264;47.480;19.354;2023-05-23T00:57:41;8.67;;;5.40;;
44696;SDS011;57264;47.480;19.354;2023-05-23T01:00:08;6.90;;;4.67;;
44696;SDS011;57264;47.480;19.354;2023-05-23T01:02:39;5.17;;;4.63;;
44696;SDS011;57264;47.480;19.354;2023-05-23T01:05:12;8.23;;;5.23;;
44696;SDS011;57264;47.480;19.354;2023-05-23T01:07:41;7.60;;;5.67;;
44696;SDS011;57264;47.480;19.354;2023-05-23T01:10:11;9.10;;;5.17;;
44696;SDS011;57264;47.480;19.354;2023-05-23T01:15:22;7.53;;;5.83;;
44696;SDS011;57264;47.480;19.354;2023-05-23T01:20:29;7.75;;;5.75;;
44696;SDS011;57264;47.480;19.354;2023-05-23T01:25:47;11.77;;;5.53;;
44696;SDS011;57264;47.480;19.354;2023-05-23T01:28:19;7.70;;;5.97;;
44696;SDS011;57264;47.480;19.354;2023-05-23T01:30:47;8.23;;;5.67;;
44696;SDS011;57264;47.480;19.354;2023-05-23T01:33:15;7.77;;;5.70;;
44696;SDS011;57264;47.480;19.354;2023-05-23T01:35:42;7.53;;;5.50;;
44696;SDS011;57264;47.480;19.354;2023-05-23T01:38:08;6.53;;;5.30;;
44696;SDS011;57264;47.480;19.354;2023-05-23T01:40:34;7.17;;;5.97;;
44696;SDS011;57264;47.480;19.354;2023-05-23T01:43:00;6.63;;;5.93;;
44696;SDS011;57264;47.480;19.354;2023-05-23T01:45:26;11.43;;;6.67;;
44696;SDS011;57264;47.480;19.354;2023-05-23T01:47:53;9.47;;;6.13;;
44696;SDS011;57264;47.480;19.354;2023-05-23T01:50:21;7.47;;;6.00;;
44696;SDS011;57264;47.480;19.354;2023-05-23T01:52:47;6.80;;;5.80;;
44696;SDS011;57264;47.480;19.354;2023-05-23T01:55:15;6.73;;;6.03;;
44696;SDS011;57264;47.480;19.354;2023-05-23T01:57:43;6.73;;;5.77;;
44696;SDS011;57264;47.480;19.354;2023-05-23T02:00:13;6.97;;;6.13;;
44696;SDS011;57264;47.480;19.354;2023-05-23T02:02:39;6.90;;;5.33;;
44696;SDS011;57264;47.480;19.354;2023-05-23T02:05:05;10.80;;;5.70;;
44696;SDS011;57264;47.480;19.354;2023-05-23T02:07:31;7.03;;;5.93;;
44696;SDS011;57264;47.480;19.354;2023-05-23T02:09:56;8.63;;;5.70;;
44696;SDS011;57264;47.480;19.354;2023-05-23T02:12:22;8.83;;;5.50;;
44696;SDS011;57264;47.480;19.354;2023-05-23T02:14:48;5.53;;;4.97;;
44696;SDS011;57264;47.480;19.354;2023-05-23T02:17:16;6.73;;;5.53;;
44696;SDS011;57264;47.480;19.354;2023-05-23T02:19:42;9.50;;;6.10;;
44696;SDS011;57264;47.480;19.354;2023-05-23T02:22:07;11.47;;;5.90;;
44696;SDS011;57264;47.480;19.354;2023-05-23T02:24:33;13.97;;;5.43;;
44696;SDS011;57264;47.480;19.354;2023-05-23T02:26:58;8.53;;;5.03;;
44696;SDS011;57264;47.480;19.354;2023-05-23T02:29:24;8.13;;;4.97;;
44696;SDS011;57264;47.480;19.354;2023-05-23T02:31:49;10.13;;;5.10;;
44696;SDS011;57264;47.480;19.354;2023-05-23T02:34:15;6.17;;;4.67;;
44696;SDS011;57264;47.480;19.354;2023-05-23T02:36:40;5.40;;;4.90;;
44696;SDS011;57264;47.480;19.354;2023-05-23T02:39:06;6.03;;;4.80;;
44696;SDS011;57264;47.480;19.354;2023-05-23T02:41:31;8.93;;;5.47;;
44696;SDS011;57264;47.480;19.354;2023-05-23T02:43:57;8.83;;;6.00;;
44696;SDS011;57264;47.480;19.354;2023-05-23T02:46:23;8.77;;;5.90;;
44696;SDS011;57264;47.480;19.354;2023-05-23T02:48:48;6.63;;;5.67;;
44696;SDS011;57264;47.480;19.354;2023-05-23T02:51:14;7.37;;;4.77;;
44696;SDS011;57264;47.480;19.354;2023-05-23T02:53:40;7.80;;;5.70;;
44696;SDS011;57264;47.480;19.354;2023-05-23T02:56:06;8.23;;;5.97;;
44696;SDS011;57264;47.480;19.354;2023-05-23T02:58:32;7.13;;;5.73;;
44696;SDS011;57264;47.480;19.354;2023-05-23T03:01:02;9.60;;;5.93;;
44696;SDS011;57264;47.480;19.354;2023-05-23T03:03:29;12.13;;;5.70;;
44696;SDS011;57264;47.480;19.354;2023-05-23T03:05:58;8.07;;;5.40;;
44696;SDS011;57264;47.480;19.354;2023-05-23T03:08:24;7.77;;;5.37;;
44696;SDS011;57264;47.480;19.354;2023-05-23T03:10:50;8.47;;;5.60;;
44696;SDS011;57264;47.480;19.354;2023-05-23T03:13:16;6.67;;;5.53;;
44696;SDS011;57264;47.480;19.354;2023-05-23T03:15:42;17.07;;;5.50;;
44696;SDS011;57264;47.480;19.354;2023-05-23T03:18:08;5.80;;;5.10;;
44696;SDS011;57264;47.480;19.354;2023-05-23T03:20:34;9.73;;;5.57;;
44696;SDS011;57264;47.480;19.354;2023-05-23T03:22:59;7.77;;;4.93;;
44696;SDS011;57264;47.480;19.354;2023-05-23T03:25:25;7.40;;;4.80;;
44696;SDS011;57264;47.480;19.354;2023-05-23T03:27:50;9.97;;;5.17;;
44696;SDS011;57264;47.480;19.354;2023-05-23T03:30:16;8.53;;;5.30;;
44696;SDS011;57264;47.480;19.354;2023-05-23T03:32:42;7.63;;;4.87;;
44696;SDS011;57264;47.480;19.354;2023-05-23T03:35:07;8.83;;;4.70;;
44696;SDS011;57264;47.480;19.354;2023-05-23T03:37:33;7.00;;;5.10;;
44696;SDS011;57264;47.480;19.354;2023-05-23T03:39:59;6.67;;;4.47;;
44696;SDS011;57264;47.480;19.354;2023-05-23T03:42:25;10.47;;;5.40;;
44696;SDS011;57264;47.480;19.354;2023-05-23T03:44:51;7.97;;;5.30;;
44696;SDS011;57264;47.480;19.354;2023-05-23T03:47:17;7.77;;;5.40;;
44696;SDS011;57264;47.480;19.354;2023-05-23T03:49:42;13.23;;;5.30;;
44696;SDS011;57264;47.480;19.354;2023-05-23T03:52:09;6.20;;;5.50;;
44696;SDS011;57264;47.480;19.354;2023-05-23T03:54:35;6.50;;;5.70;;
44696;SDS011;57264;47.480;19.354;2023-05-23T03:57:01;8.30;;;5.23;;
44696;SDS011;57264;47.480;19.354;2023-05-23T03:59:27;5.43;;;4.93;;
44696;SDS011;57264;47.480;19.354;2023-05-23T04:01:52;8.13;;;5.17;;
44696;SDS011;57264;47.480;19.354;2023-05-23T04:04:19;6.33;;;4.93;;
44696;SDS011;57264;47.480;19.354;2023-05-23T04:06:45;7.33;;;5.00;;
44696;SDS011;57264;47.480;19.354;2023-05-23T04:09:11;7.70;;;5.40;;
44696;SDS011;57264;47.480;19.354;2023-05-23T04:11:38;8.70;;;4.90;;
44696;SDS011;57264;47.480;19.354;2023-05-23T04:14:05;7.70;;;5.00;;
44696;SDS011;57264;47.480;19.354;2023-05-23T04:16:32;13.27;;;5.00;;
44696;SDS011;57264;47.480;19.354;2023-05-23T04:19:00;9.27;;;5.07;;
44696;SDS011;57264;47.480;19.354;2023-05-23T04:21:26;15.37;;;6.20;;
44696;SDS011;57264;47.480;19.354;2023-05-23T04:23:52;8.23;;;5.00;;
44696;SDS011;57264;47.480;19.354;2023-05-23T04:26:18;12.13;;;5.77;;
44696;SDS011;57264;47.480;19.354;2023-05-23T04:28:44;4.77;;;4.07;;
44696;SDS011;57264;47.480;19.354;2023-05-23T04:31:11;7.93;;;4.27;;
44696;SDS011;57264;47.480;19.354;2023-05-23T04:33:36;7.83;;;4.50;;
44696;SDS011;57264;47.480;19.354;2023-05-23T04:36:02;9.33;;;4.50;;
44696;SDS011;57264;47.480;19.354;2023-05-23T04:38:28;8.60;;;3.90;;
44696;SDS011;57264;47.480;19.354;2023-05-23T04:40:54;7.40;;;4.23;;
44696;SDS011;57264;47.480;19.354;2023-05-23T04:43:19;8.67;;;3.77;;
44696;SDS011;57264;47.480;19.354;2023-05-23T04:45:46;10.13;;;4.00;;
44696;SDS011;57264;47.480;19.354;2023-05-23T04:48:15;5.13;;;3.90;;
44696;SDS011;57264;47.480;19.354;2023-05-23T04:50:45;7.80;;;3.97;;
44696;SDS011;57264;47.480;19.354;2023-05-23T04:53:12;4.83;;;3.20;;
44696;SDS011;57264;47.480;19.354;2023-05-23T04:55:38;10.17;;;4.80;;
44696;SDS011;57264;47.480;19.354;2023-05-23T04:58:03;18.33;;;4.53;;
44696;SDS011;57264;47.480;19.354;2023-05-23T05:00:29;8.57;;;3.23;;
44696;SDS011;57264;47.480;19.354;2023-05-23T05:02:54;6.97;;;3.60;;
44696;SDS011;57264;47.480;19.354;2023-05-23T05:05:20;8.27;;;3.23;;
44696;SDS011;57264;47.480;19.354;2023-05-23T05:07:45;4.10;;;3.13;;
44696;SDS011;57264;47.480;19.354;2023-05-23T05:10:11;5.10;;;3.17;;
44696;SDS011;57264;47.480;19.354;2023-05-23T05:12:43;6.10;;;3.42;;
44696;SDS011;57264;47.480;19.354;2023-05-23T05:15:11;4.40;;;3.17;;
44696;SDS011;57264;47.480;19.354;2023-05-23T05:17:43;5.40;;;3.03;;
44696;SDS011;57264;47.480;19.354;2023-05-23T05:20:09;4.40;;;2.80;;
44696;SDS011;57264;47.480;19.354;2023-05-23T05:22:35;8.07;;;3.73;;
44696;SDS011;57264;47.480;19.354;2023-05-23T05:25:04;4.63;;;3.20;;
44696;SDS011;57264;47.480;19.354;2023-05-23T05:27:31;5.70;;;3.23;;
44696;SDS011;57264;47.480;19.354;2023-05-23T05:29:57;13.30;;;3.30;;
44696;SDS011;57264;47.480;19.354;2023-05-23T05:32:28;7.20;;;2.80;;
44696;SDS011;57264;47.480;19.354;2023-05-23T05:34:55;11.27;;;3.13;;
44696;SDS011;57264;47.480;19.354;2023-05-23T05:37:21;10.70;;;3.20;;
44696;SDS011;57264;47.480;19.354;2023-05-23T05:39:46;4.50;;;2.83;;
44696;SDS011;57264;47.480;19.354;2023-05-23T05:42:12;3.53;;;2.90;;
44696;SDS011;57264;47.480;19.354;2023-05-23T05:44:38;9.27;;;3.10;;
44696;SDS011;57264;47.480;19.354;2023-05-23T05:47:03;4.97;;;2.87;;
44696;SDS011;57264;47.480;19.354;2023-05-23T05:49:29;6.03;;;3.20;;
44696;SDS011;57264;47.480;19.354;2023-05-23T05:51:55;5.57;;;2.87;;
44696;SDS011;57264;47.480;19.354;2023-05-23T05:54:20;11.67;;;2.73;;
44696;SDS011;57264;47.480;19.354;2023-05-23T05:56:46;8.57;;;3.07;;
44696;SDS011;57264;47.480;19.354;2023-05-23T05:59:12;5.03;;;2.50;;
44696;SDS011;57264;47.480;19.354;2023-05-23T06:01:37;7.40;;;2.93;;
44696;SDS011;57264;47.480;19.354;2023-05-23T06:04:03;5.67;;;2.67;;
44696;SDS011;57264;47.480;19.354;2023-05-23T06:06:28;7.50;;;3.00;;
44696;SDS011;57264;47.480;19.354;2023-05-23T06:08:54;6.53;;;2.73;;
44696;SDS011;57264;47.480;19.354;2023-05-23T06:11:19;11.57;;;3.00;;
44696;SDS011;57264;47.480;19.354;2023-05-23T06:13:45;13.20;;;3.57;;
44696;SDS011;57264;47.480;19.354;2023-05-23T06:16:10;7.80;;;3.20;;
44696;SDS011;57264;47.480;19.354;2023-05-23T06:18:36;5.30;;;2.40;;
44696;SDS011;57264;47.480;19.354;2023-05-23T06:21:02;6.97;;;2.40;;
44696;SDS011;57264;47.480;19.354;2023-05-23T06:23:27;17.00;;;3.38;;
44696;SDS011;57264;47.480;19.354;2023-05-23T06:25:53;12.50;;;3.33;;
44696;SDS011;57264;47.480;19.354;2023-05-23T06:28:18;3.45;;;2.55;;
44696;SDS011;57264;47.480;19.354;2023-05-23T06:30:44;3.80;;;2.63;;
44696;SDS011;57264;47.480;19.354;2023-05-23T06:33:09;5.53;;;2.90;;
44696;SDS011;57264;47.480;19.354;2023-05-23T06:35:36;2.73;;;2.43;;
44696;SDS011;57264;47.480;19.354;2023-05-23T06:38:02;5.60;;;2.63;;
44696;SDS011;57264;47.480;19.354;2023-05-23T06:40:27;8.60;;;3.10;;
44696;SDS011;57264;47.480;19.354;2023-05-23T06:42:53;6.03;;;2.72;;
44696;SDS011;57264;47.480;19.354;2023-05-23T06:45:18;5.03;;;2.70;;
44696;SDS011;57264;47.480;19.354;2023-05-23T06:47:44;6.93;;;2.90;;
44696;SDS011;57264;47.480;19.354;2023-05-23T06:50:11;6.85;;;2.55;;
44696;SDS011;57264;47.480;19.354;2023-05-23T06:52:37;7.07;;;3.10;;
44696;SDS011;57264;47.480;19.354;2023-05-23T06:55:03;9.68;;;2.88;;
44696;SDS011;57264;47.480;19.354;2023-05-23T06:57:29;4.75;;;2.70;;
44696;SDS011;57264;47.480;19.354;2023-05-23T06:59:54;6.55;;;2.85;;
44696;SDS011;57264;47.480;19.354;2023-05-23T07:02:20;7.45;;;2.78;;
44696;SDS011;57264;47.480;19.354;2023-05-23T07:04:45;9.00;;;3.28;;
44696;SDS011;57264;47.480;19.354;2023-05-23T07:07:11;5.13;;;3.20;;
44696;SDS011;57264;47.480;19.354;2023-05-23T07:09:37;6.60;;;2.72;;
44696;SDS011;57264;47.480;19.354;2023-05-23T07:12:03;3.42;;;2.55;;
44696;SDS011;57264;47.480;19.354;2023-05-23T07:25:43;3.13;;;2.78;;
44696;SDS011;57264;47.480;19.354;2023-05-23T07:28:11;17.83;;;3.42;;
44696;SDS011;57264;47.480;19.354;2023-05-23T07:30:37;6.03;;;3.00;;
44696;SDS011;57264;47.480;19.354;2023-05-23T07:33:02;7.17;;;3.07;;
44696;SDS011;57264;47.480;19.354;2023-05-23T07:35:28;9.23;;;3.23;;
44696;SDS011;57264;47.480;19.354;2023-05-23T07:37:54;7.03;;;3.13;;
44696;SDS011;57264;47.480;19.354;2023-05-23T07:40:22;5.10;;;3.30;;
44696;SDS011;57264;47.480;19.354;2023-05-23T07:42:47;6.77;;;3.50;;
44696;SDS011;57264;47.480;19.354;2023-05-23T07:45:13;4.33;;;3.10;;
44696;SDS011;57264;47.480;19.354;2023-05-23T07:47:39;7.83;;;3.10;;
44696;SDS011;57264;47.480;19.354;2023-05-23T07:50:05;4.30;;;3.27;;
44696;SDS011;57264;47.480;19.354;2023-05-23T07:52:31;7.23;;;3.33;;
44696;SDS011;57264;47.480;19.354;2023-05-23T07:54:57;6.27;;;2.93;;
44696;SDS011;57264;47.480;19.354;2023-05-23T07:57:23;4.93;;;3.03;;
44696;SDS011;57264;47.480;19.354;2023-05-23T07:59:49;4.70;;;2.60;;
44696;SDS011;57264;47.480;19.354;2023-05-23T08:02:16;5.30;;;2.93;;
44696;SDS011;57264;47.480;19.354;2023-05-23T08:04:42;15.13;;;3.50;;
44696;SDS011;57264;47.480;19.354;2023-05-23T08:07:07;5.07;;;3.10;;
44696;SDS011;57264;47.480;19.354;2023-05-23T08:09:34;7.07;;;2.87;;
44696;SDS011;57264;47.480;19.354;2023-05-23T08:12:00;5.23;;;2.60;;
44696;SDS011;57264;47.480;19.354;2023-05-23T08:14:25;5.67;;;2.63;;
44696;SDS011;57264;47.480;19.354;2023-05-23T08:16:51;11.13;;;3.63;;
44696;SDS011;57264;47.480;19.354;2023-05-23T08:19:17;5.23;;;3.00;;
44696;SDS011;57264;47.480;19.354;2023-05-23T08:21:42;17.90;;;3.53;;
44696;SDS011;57264;47.480;19.354;2023-05-23T08:24:08;10.70;;;4.00;;
44696;SDS011;57264;47.480;19.354;2023-05-23T08:26:34;8.47;;;3.50;;
44696;SDS011;57264;47.480;19.354;2023-05-23T08:29:01;8.73;;;3.70;;
44696;SDS011;57264;47.480;19.354;2023-05-23T08:31:30;5.93;;;3.80;;
44696;SDS011;57264;47.480;19.354;2023-05-23T08:33:58;6.83;;;3.00;;
44696;SDS011;57264;47.480;19.354;2023-05-23T08:36:32;5.73;;;3.37;;
44696;SDS011;57264;47.480;19.354;2023-05-23T08:39:00;7.13;;;3.40;;
44696;SDS011;57264;47.480;19.354;2023-05-23T08:41:26;7.77;;;3.33;;
44696;SDS011;57264;47.480;19.354;2023-05-23T08:43:53;6.37;;;3.27;;
44696;SDS011;57264;47.480;19.354;2023-05-23T08:46:19;4.57;;;2.90;;
44696;SDS011;57264;47.480;19.354;2023-05-23T08:48:50;6.37;;;3.60;;
44696;SDS011;57264;47.480;19.354;2023-05-23T08:51:20;6.70;;;3.10;;
44696;SDS011;57264;47.480;19.354;2023-05-23T08:53:49;8.10;;;3.70;;
44696;SDS011;57264;47.480;19.354;2023-05-23T08:56:17;8.03;;;3.37;;
44696;SDS011;57264;47.480;19.354;2023-05-23T08:58:43;10.00;;;3.37;;
44696;SDS011;57264;47.480;19.354;2023-05-23T09:01:12;5.67;;;3.57;;
44696;SDS011;57264;47.480;19.354;2023-05-23T09:03:39;5.53;;;3.60;;
44696;SDS011;57264;47.480;19.354;2023-05-23T09:06:06;4.03;;;3.40;;
44696;SDS011;57264;47.480;19.354;2023-05-23T09:08:33;10.33;;;3.23;;
44696;SDS011;57264;47.480;19.354;2023-05-23T09:11:00;4.37;;;3.10;;
44696;SDS011;57264;47.480;19.354;2023-05-23T09:13:31;6.63;;;3.50;;
44696;SDS011;57264;47.480;19.354;2023-05-23T09:21:19;5.53;;;3.27;;
44696;SDS011;57264;47.480;19.354;2023-05-23T09:23:44;6.03;;;3.37;;
44696;SDS011;57264;47.480;19.354;2023-05-23T09:26:10;6.97;;;3.50;;
44696;SDS011;57264;47.480;19.354;2023-05-23T09:28:41;10.50;;;4.03;;
44696;SDS011;57264;47.480;19.354;2023-05-23T09:31:08;8.10;;;3.40;;
44696;SDS011;57264;47.480;19.354;2023-05-23T09:33:39;4.93;;;3.13;;
44696;SDS011;57264;47.480;19.354;2023-05-23T09:36:23;5.23;;;3.30;;
44696;SDS011;57264;47.480;19.354;2023-05-23T09:38:53;3.58;;;3.20;;
44696;SDS011;57264;47.480;19.354;2023-05-23T09:41:19;9.00;;;3.47;;
44696;SDS011;57264;47.480;19.354;2023-05-23T09:43:51;14.93;;;3.33;;
44696;SDS011;57264;47.480;19.354;2023-05-23T09:46:18;7.07;;;3.33;;
44696;SDS011;57264;47.480;19.354;2023-05-23T09:48:48;6.00;;;3.43;;
44696;SDS011;57264;47.480;19.354;2023-05-23T09:51:17;5.95;;;3.35;;
44696;SDS011;57264;47.480;19.354;2023-05-23T09:56:14;7.93;;;3.57;;
44696;SDS011;57264;47.480;19.354;2023-05-23T09:58:42;8.13;;;3.20;;
44696;SDS011;57264;47.480;19.354;2023-05-23T10:01:11;8.33;;;3.70;;
44696;SDS011;57264;47.480;19.354;2023-05-23T10:03:39;4.33;;;3.60;;
44696;SDS011;57264;47.480;19.354;2023-05-23T10:09:09;7.83;;;3.13;;
44696;SDS011;57264;47.480;19.354;2023-05-23T10:14:43;5.83;;;3.77;;
44696;SDS011;57264;47.480;19.354;2023-05-23T10:20:17;5.70;;;3.33;;
44696;SDS011;57264;47.480;19.354;2023-05-23T10:22:49;6.23;;;2.97;;
44696;SDS011;57264;47.480;19.354;2023-05-23T10:25:15;6.17;;;3.20;;
44696;SDS011;57264;47.480;19.354;2023-05-23T10:27:41;5.63;;;3.17;;
44696;SDS011;57264;47.480;19.354;2023-05-23T10:30:07;4.90;;;2.80;;
44696;SDS011;57264;47.480;19.354;2023-05-23T10:32:34;7.67;;;3.97;;
44696;SDS011;57264;47.480;19.354;2023-05-23T10:46:20;5.27;;;3.27;;
44696;SDS011;57264;47.480;19.354;2023-05-23T10:48:46;4.70;;;3.40;;
44696;SDS011;57264;47.480;19.354;2023-05-23T10:53:44;6.73;;;3.17;;
44696;SDS011;57264;47.480;19.354;2023-05-23T10:56:23;9.10;;;3.83;;
44696;SDS011;57264;47.480;19.354;2023-05-23T10:58:55;6.03;;;3.23;;
44696;SDS011;57264;47.480;19.354;2023-05-23T11:01:22;4.63;;;3.10;;
44696;SDS011;57264;47.480;19.354;2023-05-23T11:03:50;8.87;;;3.17;;
44696;SDS011;57264;47.480;19.354;2023-05-23T11:09:12;10.07;;;3.50;;
44696;SDS011;57264;47.480;19.354;2023-05-23T11:17:13;5.30;;;3.30;;
44696;SDS011;57264;47.480;19.354;2023-05-23T11:22:31;4.93;;;3.43;;
44696;SDS011;57264;47.480;19.354;2023-05-23T11:24:58;5.73;;;3.40;;
44696;SDS011;57264;47.480;19.354;2023-05-23T11:27:32;6.50;;;3.10;;
44696;SDS011;57264;47.480;19.354;2023-05-23T11:32:33;6.23;;;3.20;;
44696;SDS011;57264;47.480;19.354;2023-05-23T11:35:02;5.70;;;3.00;;
44696;SDS011;57264;47.480;19.354;2023-05-23T11:37:33;5.47;;;3.40;;
44696;SDS011;57264;47.480;19.354;2023-05-23T11:39:59;5.60;;;3.23;;
44696;SDS011;57264;47.480;19.354;2023-05-23T11:42:58;9.37;;;3.20;;
44696;SDS011;57264;47.480;19.354;2023-05-23T11:45:25;7.63;;;3.53;;
44696;SDS011;57264;47.480;19.354;2023-05-23T11:47:52;5.00;;;3.40;;
44696;SDS011;57264;47.480;19.354;2023-05-23T11:50:17;7.00;;;3.37;;
44696;SDS011;57264;47.480;19.354;2023-05-23T11:52:48;7.65;;;3.30;;
44696;SDS011;57264;47.480;19.354;2023-05-23T11:55:18;5.43;;;3.10;;
44696;SDS011;57264;47.480;19.354;2023-05-23T11:57:45;3.30;;;3.00;;
44696;SDS011;57264;47.480;19.354;2023-05-23T12:00:11;6.77;;;3.30;;
44696;SDS011;57264;47.480;19.354;2023-05-23T12:02:41;6.53;;;3.07;;
44696;SDS011;57264;47.480;19.354;2023-05-23T12:05:11;5.37;;;3.63;;
44696;SDS011;57264;47.480;19.354;2023-05-23T12:10:06;7.80;;;3.20;;
44696;SDS011;57264;47.480;19.354;2023-05-23T12:12:33;6.27;;;2.80;;
44696;SDS011;57264;47.480;19.354;2023-05-23T12:14:59;5.50;;;2.93;;
44696;SDS011;57264;47.480;19.354;2023-05-23T12:17:25;3.97;;;3.27;;
44696;SDS011;57264;47.480;19.354;2023-05-23T12:19:51;5.50;;;3.10;;
44696;SDS011;57264;47.480;19.354;2023-05-23T12:22:21;5.60;;;3.30;;
44696;SDS011;57264;47.480;19.354;2023-05-23T12:24:53;3.33;;;3.03;;
44696;SDS011;57264;47.480;19.354;2023-05-23T12:27:25;4.70;;;3.23;;
44696;SDS011;57264;47.480;19.354;2023-05-23T12:30:03;4.47;;;2.90;;
44696;SDS011;57264;47.480;19.354;2023-05-23T12:32:33;3.80;;;2.80;;
44696;SDS011;57264;47.480;19.354;2023-05-23T12:35:02;5.60;;;3.00;;
44696;SDS011;57264;47.480;19.354;2023-05-23T12:37:28;4.97;;;2.83;;
44696;SDS011;57264;47.480;19.354;2023-05-23T12:39:54;5.67;;;3.10;;
44696;SDS011;57264;47.480;19.354;2023-05-23T12:42:19;6.47;;;3.60;;
44696;SDS011;57264;47.480;19.354;2023-05-23T12:44:45;6.40;;;3.20;;
44696;SDS011;57264;47.480;19.354;2023-05-23T12:47:13;4.13;;;3.27;;
44696;SDS011;57264;47.480;19.354;2023-05-23T12:49:39;4.87;;;2.90;;
44696;SDS011;57264;47.480;19.354;2023-05-23T12:52:04;5.13;;;3.10;;
44696;SDS011;57264;47.480;19.354;2023-05-23T12:54:31;5.17;;;3.20;;
44696;SDS011;57264;47.480;19.354;2023-05-23T12:56:57;5.87;;;3.27;;
44696;SDS011;57264;47.480;19.354;2023-05-23T12:59:23;5.77;;;3.03;;
44696;SDS011;57264;47.480;19.354;2023-05-23T13:01:48;10.67;;;3.00;;
44696;SDS011;57264;47.480;19.354;2023-05-23T13:04:14;5.23;;;3.27;;
44696;SDS011;57264;47.480;19.354;2023-05-23T13:06:39;4.67;;;3.23;;
44696;SDS011;57264;47.480;19.354;2023-05-23T13:09:05;7.13;;;3.10;;
44696;SDS011;57264;47.480;19.354;2023-05-23T13:11:30;30.80;;;4.20;;
44696;SDS011;57264;47.480;19.354;2023-05-23T13:13:56;6.40;;;3.30;;
44696;SDS011;57264;47.480;19.354;2023-05-23T13:16:22;5.73;;;3.63;;
44696;SDS011;57264;47.480;19.354;2023-05-23T13:18:47;6.63;;;3.30;;
44696;SDS011;57264;47.480;19.354;2023-05-23T13:21:13;7.97;;;3.30;;
44696;SDS011;57264;47.480;19.354;2023-05-23T13:23:38;5.23;;;3.03;;
44696;SDS011;57264;47.480;19.354;2023-05-23T13:26:04;4.97;;;3.10;;
44696;SDS011;57264;47.480;19.354;2023-05-23T13:28:30;6.10;;;3.20;;
44696;SDS011;57264;47.480;19.354;2023-05-23T13:30:56;5.77;;;3.20;;
44696;SDS011;57264;47.480;19.354;2023-05-23T13:33:22;9.50;;;3.60;;
44696;SDS011;57264;47.480;19.354;2023-05-23T13:35:48;8.53;;;3.60;;
44696;SDS011;57264;47.480;19.354;2023-05-23T13:38:16;6.97;;;3.03;;
44696;SDS011;57264;47.480;19.354;2023-05-23T13:40:42;3.73;;;3.00;;
44696;SDS011;57264;47.480;19.354;2023-05-23T13:43:08;7.37;;;3.50;;
44696;SDS011;57264;47.480;19.354;2023-05-23T13:45:33;9.23;;;3.23;;
44696;SDS011;57264;47.480;19.354;2023-05-23T13:47:59;5.50;;;3.37;;
44696;SDS011;57264;47.480;19.354;2023-05-23T13:50:25;5.03;;;3.20;;
44696;SDS011;57264;47.480;19.354;2023-05-23T13:52:51;8.10;;;3.00;;
44696;SDS011;57264;47.480;19.354;2023-05-23T13:55:16;5.83;;;3.40;;
44696;SDS011;57264;47.480;19.354;2023-05-23T13:57:45;12.93;;;3.87;;
44696;SDS011;57264;47.480;19.354;2023-05-23T14:00:11;3.63;;;2.60;;
44696;SDS011;57264;47.480;19.354;2023-05-23T14:02:37;4.63;;;3.30;;
44696;SDS011;57264;47.480;19.354;2023-05-23T14:05:02;6.07;;;3.60;;
44696;SDS011;57264;47.480;19.354;2023-05-23T14:07:28;6.47;;;3.20;;
44696;SDS011;57264;47.480;19.354;2023-05-23T14:09:55;4.27;;;2.97;;
44696;SDS011;57264;47.480;19.354;2023-05-23T14:12:21;7.03;;;3.27;;
44696;SDS011;57264;47.480;19.354;2023-05-23T14:14:47;7.93;;;3.27;;
44696;SDS011;57264;47.480;19.354;2023-05-23T14:17:13;8.47;;;3.37;;
44696;SDS011;57264;47.480;19.354;2023-05-23T14:19:40;8.90;;;3.30;;
44696;SDS011;57264;47.480;19.354;2023-05-23T14:22:05;6.70;;;3.10;;
44696;SDS011;57264;47.480;19.354;2023-05-23T14:24:31;6.20;;;3.40;;
44696;SDS011;57264;47.480;19.354;2023-05-23T14:26:56;7.00;;;3.40;;
44696;SDS011;57264;47.480;19.354;2023-05-23T14:29:22;17.60;;;4.13;;
44696;SDS011;57264;47.480;19.354;2023-05-23T14:31:47;11.73;;;4.13;;
44696;SDS011;57264;47.480;19.354;2023-05-23T14:34:13;6.67;;;3.73;;
44696;SDS011;57264;47.480;19.354;2023-05-23T14:36:38;10.57;;;3.50;;
44696;SDS011;57264;47.480;19.354;2023-05-23T14:39:04;7.57;;;4.20;;
44696;SDS011;57264;47.480;19.354;2023-05-23T14:41:31;10.50;;;3.50;;
44696;SDS011;57264;47.480;19.354;2023-05-23T14:43:57;7.10;;;3.10;;
44696;SDS011;57264;47.480;19.354;2023-05-23T14:46:23;11.90;;;4.00;;
44696;SDS011;57264;47.480;19.354;2023-05-23T14:48:48;11.77;;;3.80;;
44696;SDS011;57264;47.480;19.354;2023-05-23T14:51:14;8.67;;;4.23;;
44696;SDS011;57264;47.480;19.354;2023-05-23T14:53:39;9.30;;;4.53;;
44696;SDS011;57264;47.480;19.354;2023-05-23T14:56:05;9.33;;;4.50;;
44696;SDS011;57264;47.480;19.354;2023-05-23T14:58:31;14.63;;;6.03;;
44696;SDS011;57264;47.480;19.354;2023-05-23T15:00:56;7.83;;;4.83;;
44696;SDS011;57264;47.480;19.354;2023-05-23T15:03:22;10.07;;;5.80;;
44696;SDS011;57264;47.480;19.354;2023-05-23T15:05:47;10.43;;;6.10;;
44696;SDS011;57264;47.480;19.354;2023-05-23T15:08:14;8.00;;;5.40;;
44696;SDS011;57264;47.480;19.354;2023-05-23T15:10:40;6.10;;;3.93;;
44696;SDS011;57264;47.480;19.354;2023-05-23T15:13:08;8.20;;;3.87;;
44696;SDS011;57264;47.480;19.354;2023-05-23T15:15:34;8.67;;;4.57;;
44696;SDS011;57264;47.480;19.354;2023-05-23T15:18:04;11.90;;;5.07;;
44696;SDS011;57264;47.480;19.354;2023-05-23T15:20:33;4.67;;;3.63;;
44696;SDS011;57264;47.480;19.354;2023-05-23T15:23:00;4.67;;;3.60;;
44696;SDS011;57264;47.480;19.354;2023-05-23T15:25:25;11.93;;;3.53;;
44696;SDS011;57264;47.480;19.354;2023-05-23T15:27:52;5.40;;;3.20;;
44696;SDS011;57264;47.480;19.354;2023-05-23T15:30:18;7.10;;;3.20;;
44696;SDS011;57264;47.480;19.354;2023-05-23T15:32:43;4.50;;;3.17;;
44696;SDS011;57264;47.480;19.354;2023-05-23T15:35:09;6.70;;;3.53;;
44696;SDS011;57264;47.480;19.354;2023-05-23T15:37:34;5.97;;;3.93;;
44696;SDS011;57264;47.480;19.354;2023-05-23T15:40:00;5.83;;;3.80;;